Terminal Aerodrome Forecast
Issued by NWS Grand Junction, CO

Home | Current Version | Previous Version | Text Only | Print | Product List | Glossary On
Versions: 1 2 3 4 5 6 7 8 9 10 11 12 13 14 15 16 17 18
000
FTUS45 KGJT 262343
TAFGJT
TAF
KGJT 262343Z 2700/2724 28004KT P6SM VCTS BKN150CB
     FM270200 07008KT P6SM VCTS BKN150CB
     FM270600 12005KT P6SM VCSH SCT150
     FM272000 27008KT P6SM VCTS BKN150CB
     FM272300 22006KT P6SM VCTS BKN150CB=

USA.gov is the U.S. government's official web portal to all federal, state and local government web resources and services.